Time;durP1;ratioP1;P1;durP2;ratioP2;P2;SDS_P1;SDS_P2;PMS_P1;PMS_P2;Temp;Humidity;BMP_temperature;BMP_pressure;BME280_temperature;BME280_humidity;BME280_pressure;Samples;Min_cycle;Max_cycle;Signal;HPM_P1;HPM_P2
2021/08/22 00:00:51;;;;;;;9.07;6.05;;;;;;;18.13;89.95;98789.13;5006988;28;20117;-70
2021/08/22 00:03:17;;;;;;;11.30;6.53;;;;;;;18.04;90.39;98798.81;5012466;28;20030;-70
2021/08/22 00:05:43;;;;;;;9.55;7.30;;;;;;;18.12;90.99;98830.44;5007686;28;20037;-70
2021/08/22 00:08:09;;;;;;;10.55;5.82;;;;;;;17.98;90.99;98819.00;5011756;28;20038;-70
2021/08/22 00:10:35;;;;;;;8.30;5.85;;;;;;;18.21;90.59;98844.50;5008068;28;20056;-70
2021/08/22 00:13:00;;;;;;;10.27;5.50;;;;;;;18.07;91.64;98844.88;5009452;28;20057;-70
2021/08/22 00:15:26;;;;;;;9.32;6.05;;;;;;;17.96;91.28;98837.59;5011326;28;20108;-70
2021/08/22 00:17:51;;;;;;;11.10;6.25;;;;;;;18.20;91.40;98925.84;5012553;28;20044;-70
2021/08/22 00:20:20;;;;;;;12.55;6.88;;;;;;;18.22;91.63;98917.38;4995129;28;20084;-70
2021/08/22 00:22:45;;;;;;;10.45;7.13;;;;;;;18.74;89.15;98933.47;5010573;28;20237;-70
2021/08/22 00:25:11;;;;;;;7.88;5.47;;;;;;;19.04;86.72;98925.66;5011652;28;20139;-70
2021/08/22 00:27:36;;;;;;;6.88;4.05;;;;;;;19.00;87.66;98956.59;5013478;28;20029;-70
2021/08/22 00:30:01;;;;;;;9.30;3.88;;;;;;;18.90;88.23;99006.66;4993819;28;20121;-70
2021/08/22 00:32:26;;;;;;;11.60;4.13;;;;;;;18.42;93.42;99002.63;5002582;28;20026;-70
2021/08/22 00:34:52;;;;;;;8.23;2.78;;;;;;;17.93;91.25;99005.06;5012031;28;20021;-70
2021/08/22 00:37:17;;;;;;;7.78;2.20;;;;;;;17.44;91.13;98993.72;5012548;28;20088;-70
2021/08/22 00:39:42;;;;;;;5.45;2.13;;;;;;;17.01;92.30;98984.09;4990555;28;20239;-70
2021/08/22 00:42:08;;;;;;;4.00;1.70;;;;;;;16.95;89.54;98982.28;5011837;28;20349;-70
2021/08/22 00:44:34;;;;;;;4.22;2.08;;;;;;;16.91;92.44;98968.28;5006703;28;20038;-71
2021/08/22 00:47:01;;;;;;;4.95;2.20;;;;;;;16.91;93.82;98967.47;4993588;28;20045;-71
2021/08/22 00:49:29;;;;;;;4.18;1.83;;;;;;;16.80;95.43;98936.38;4994765;28;20098;-71
2021/08/22 00:51:54;;;;;;;5.25;1.73;;;;;;;17.03;92.81;98954.63;5012542;28;20037;-71
2021/08/22 00:54:19;;;;;;;6.72;2.13;;;;;;;17.03;93.08;98949.16;5009818;28;20392;-71
2021/08/22 00:56:45;;;;;;;3.20;1.60;;;;;;;17.06;92.28;98962.34;5012135;28;20037;-71
2021/08/22 00:59:15;;;;;;;4.97;1.52;;;;;;;17.03;90.32;98965.56;5011784;28;20496;-71
2021/08/22 01:01:45;;;;;;;4.03;1.50;;;;;;;16.89;92.22;98966.88;5002329;28;20073;-71
2021/08/22 01:04:19;;;;;;;3.92;1.55;;;;;;;16.96;93.02;98989.44;4980859;28;20036;-70
2021/08/22 01:06:52;;;;;;;4.60;2.00;;;;;;;16.84;93.67;98990.28;5009873;28;20034;-70
2021/08/22 01:09:25;;;;;;;3.70;1.63;;;;;;;16.69;94.29;98978.13;5011781;28;20041;-70
2021/08/22 01:11:55;;;;;;;2.35;1.48;;;;;;;16.69;93.71;98981.72;5011239;28;20029;-70
2021/08/22 01:14:27;;;;;;;4.35;1.80;;;;;;;16.47;94.80;98948.72;5007366;28;20026;-70
2021/08/22 01:16:56;;;;;;;3.05;1.92;;;;;;;16.46;95.26;98940.78;5010586;28;20060;-71
2021/08/22 01:19:41;;;;;;;4.57;1.88;;;;;;;16.43;96.09;98942.06;4993420;28;20029;-71
2021/08/22 01:22:07;;;;;;;4.38;1.95;;;;;;;16.37;97.58;98904.78;4994449;28;20025;-71
2021/08/22 01:24:37;;;;;;;2.47;1.52;;;;;;;16.31;99.95;98892.91;5011120;28;20100;-71
2021/08/22 01:27:04;;;;;;;4.10;2.05;;;;;;;16.30;100.00;98885.81;5005672;28;20032;-71
2021/08/22 01:29:44;;;;;;;3.60;1.70;;;;;;;16.45;98.88;98907.16;5011458;28;20064;-71
2021/08/22 01:32:12;;;;;;;4.50;2.10;;;;;;;16.46;98.71;98899.81;5000846;28;20048;-71
2021/08/22 01:34:38;;;;;;;3.58;2.10;;;;;;;16.46;99.08;98897.91;5011596;28;20038;-71
2021/08/22 01:37:04;;;;;;;3.13;1.90;;;;;;;16.46;100.00;98886.16;5010409;28;20034;-71
2021/08/22 01:39:31;;;;;;;3.40;2.03;;;;;;;16.42;100.00;98883.88;5009496;28;20596;-71
2021/08/22 01:41:56;;;;;;;6.25;2.15;;;;;;;16.23;100.00;98848.78;5008508;28;20030;-71
2021/08/22 01:44:23;;;;;;;4.68;2.20;;;;;;;16.32;100.00;98842.72;4993411;28;20065;-71
2021/08/22 01:46:49;;;;;;;4.78;2.00;;;;;;;16.31;100.00;98835.59;4992229;28;20400;-71
2021/08/22 01:49:18;;;;;;;3.90;1.90;;;;;;;16.34;100.00;98829.63;4996287;28;20059;-71
2021/08/22 01:51:45;;;;;;;3.57;1.97;;;;;;;16.29;100.00;98806.84;4992521;28;20034;-71
2021/08/22 01:54:11;;;;;;;3.65;1.95;;;;;;;16.26;100.00;98790.97;4993132;28;20266;-71
2021/08/22 01:56:38;;;;;;;4.38;2.20;;;;;;;16.25;100.00;98803.78;5014313;28;20048;-71
2021/08/22 01:59:04;;;;;;;4.13;2.08;;;;;;;16.24;100.00;98804.03;5010733;28;20117;-71
2021/08/22 02:01:30;;;;;;;2.60;1.77;;;;;;;16.15;100.00;98781.72;5013057;28;20109;-71
2021/08/22 02:04:05;;;;;;;5.28;2.38;;;;;;;16.18;100.00;98794.91;5014703;28;20061;-71
2021/08/22 02:06:30;;;;;;;4.18;2.03;;;;;;;16.11;100.00;98797.78;5015061;28;20053;-71
2021/08/22 02:09:01;;;;;;;3.80;2.03;;;;;;;16.05;100.00;98784.25;5014008;28;20507;-71
2021/08/22 02:11:50;;;;;;;3.92;2.45;;;;;;;16.24;100.00;98798.56;5017288;28;20029;-71
2021/08/22 02:14:17;;;;;;;5.57;2.08;;;;;;;16.24;100.00;98793.09;5034879;28;20052;-71
2021/08/22 02:16:48;;;;;;;2.78;1.80;;;;;;;16.07;100.00;98784.84;5032109;28;20364;-71
2021/08/22 02:19:16;;;;;;;3.33;2.00;;;;;;;16.13;100.00;98792.06;5010655;28;20034;-71
2021/08/22 02:21:42;;;;;;;5.60;1.90;;;;;;;16.07;100.00;98788.38;4996667;28;20565;-71
2021/08/22 02:24:07;;;;;;;4.40;2.45;;;;;;;15.90;100.00;98788.31;4996760;28;20026;-71
2021/08/22 02:26:34;;;;;;;3.65;2.28;;;;;;;15.97;100.00;98797.16;5002488;28;20491;-71
2021/08/22 02:29:00;;;;;;;4.13;2.38;;;;;;;15.95;100.00;98812.94;4995303;28;20117;-71
2021/08/22 02:31:27;;;;;;;7.55;2.53;;;;;;;15.77;100.00;98797.56;5013648;28;20105;-70
2021/08/22 02:33:54;;;;;;;11.40;2.80;;;;;;;15.84;100.00;98811.06;5014103;28;20476;-71
2021/08/22 02:36:19;;;;;;;8.23;2.72;;;;;;;15.98;100.00;98823.41;5013347;28;20108;-71
2021/08/22 02:38:45;;;;;;;5.47;2.80;;;;;;;16.00;100.00;98815.78;5014531;28;20032;-71
2021/08/22 02:41:10;;;;;;;5.68;2.78;;;;;;;16.02;100.00;98822.94;4984566;28;20476;-71
2021/08/22 02:43:36;;;;;;;4.45;2.65;;;;;;;15.97;100.00;98824.47;4996708;28;20022;-71
2021/08/22 02:46:01;;;;;;;4.32;2.58;;;;;;;15.91;100.00;98811.78;5014160;28;20033;-71
2021/08/22 02:48:26;;;;;;;7.38;3.17;;;;;;;15.77;100.00;98805.72;4978410;28;20030;-71
2021/08/22 02:50:51;;;;;;;7.88;2.78;;;;;;;15.97;100.00;98829.09;5014019;28;20052;-71
2021/08/22 02:53:17;;;;;;;7.57;3.00;;;;;;;15.81;100.00;98813.44;5013148;28;20022;-71
2021/08/22 02:55:42;;;;;;;6.22;2.80;;;;;;;15.92;100.00;98818.88;5014371;28;20052;-71
2021/08/22 02:58:07;;;;;;;5.70;2.90;;;;;;;15.86;100.00;98803.47;4995925;28;20088;-71
2021/08/22 03:00:33;;;;;;;4.57;2.80;;;;;;;15.92;100.00;98807.13;5014007;28;20034;-71
2021/08/22 03:02:58;;;;;;;7.88;2.60;;;;;;;15.88;100.00;98795.88;5013563;28;20369;-71
2021/08/22 03:05:23;;;;;;;3.97;2.38;;;;;;;15.91;100.00;98811.78;5013764;28;20045;-71
2021/08/22 03:07:49;;;;;;;4.90;2.80;;;;;;;16.00;100.00;98821.25;4995303;28;20057;-71
2021/08/22 03:10:14;;;;;;;6.28;2.78;;;;;;;16.00;100.00;98804.88;5014040;28;20021;-71
2021/08/22 03:12:39;;;;;;;6.25;2.38;;;;;;;16.03;100.00;98814.47;5013226;28;20037;-71
2021/08/22 03:15:09;;;;;;;5.32;2.25;;;;;;;16.00;100.00;98804.88;4996249;28;20022;-71
2021/08/22 03:17:35;;;;;;;4.97;2.60;;;;;;;15.81;100.00;98792.44;4996017;28;20084;-71
2021/08/22 03:20:03;;;;;;;3.35;2.20;;;;;;;15.89;100.00;98821.25;4996307;28;20510;-71
2021/08/22 03:22:29;;;;;;;3.92;2.50;;;;;;;15.86;100.00;98822.56;5003596;28;20030;-71
2021/08/22 03:24:54;;;;;;;5.95;2.47;;;;;;;15.84;100.00;98816.50;5013698;28;20046;-71
2021/08/22 03:27:19;;;;;;;6.80;2.85;;;;;;;15.97;100.00;98829.09;5015331;28;20500;-71
2021/08/22 03:29:44;;;;;;;2.95;2.00;;;;;;;15.76;100.00;98817.69;5012502;28;20117;-71
2021/08/22 03:32:10;;;;;;;3.53;2.30;;;;;;;15.79;100.00;98824.56;5011599;28;20026;-71
2021/08/22 03:34:35;;;;;;;3.95;2.28;;;;;;;15.91;100.00;98844.53;5013526;28;20392;-71
2021/08/22 03:37:00;;;;;;;4.15;2.30;;;;;;;15.91;100.00;98841.78;5006992;28;20062;-71
2021/08/22 03:39:26;;;;;;;3.70;2.22;;;;;;;15.82;100.00;98834.19;4994186;28;20048;-71
2021/08/22 03:41:51;;;;;;;4.70;2.50;;;;;;;15.87;100.00;98853.41;5012921;28;20379;-71
2021/08/22 03:44:16;;;;;;;3.45;2.22;;;;;;;15.82;100.00;98848.66;5013209;28;20036;-71
2021/08/22 03:46:42;;;;;;;5.47;2.40;;;;;;;15.80;100.00;98855.41;5011618;28;20045;-71
2021/08/22 03:49:07;;;;;;;3.20;2.20;;;;;;;15.77;100.00;98859.44;5007927;28;20022;-71
2021/08/22 03:51:32;;;;;;;5.10;2.47;;;;;;;15.76;100.00;98868.69;4997351;28;20512;-71
2021/08/22 03:53:58;;;;;;;3.85;2.33;;;;;;;15.62;100.00;98861.78;4994884;28;20037;-71
2021/08/22 03:56:23;;;;;;;5.97;2.80;;;;;;;15.62;100.00;98868.06;5011430;28;20041;-71
2021/08/22 03:58:48;;;;;;;7.88;2.78;;;;;;;15.50;100.00;98843.47;4994140;28;20113;-71
2021/08/22 04:01:14;;;;;;;5.70;2.75;;;;;;;15.43;100.00;98842.78;5004066;28;20508;-71
2021/08/22 04:03:40;;;;;;;7.95;2.85;;;;;;;15.54;100.00;98871.97;5011259;28;20480;-71
2021/08/22 04:06:06;;;;;;;4.38;2.88;;;;;;;15.54;100.00;98861.06;5012459;28;20029;-71
2021/08/22 04:08:34;;;;;;;7.10;2.67;;;;;;;15.67;100.00;98849.09;5012310;28;20062;-71
2021/08/22 04:11:00;;;;;;;7.78;2.85;;;;;;;15.71;100.00;98831.22;5012688;28;20101;-70
2021/08/22 04:13:25;;;;;;;5.25;2.65;;;;;;;15.83;100.00;98850.34;5012403;28;20100;-71
2021/08/22 04:15:50;;;;;;;5.97;2.70;;;;;;;15.87;100.00;98861.59;4995620;28;20081;-71
2021/08/22 04:18:17;;;;;;;7.95;2.20;;;;;;;15.85;100.00;98866.44;5009548;28;20522;-71
2021/08/22 04:20:42;;;;;;;4.90;2.95;;;;;;;15.70;100.00;98839.66;5012336;28;20026;-71
2021/08/22 04:23:08;;;;;;;3.92;2.63;;;;;;;15.81;100.00;98863.38;5017495;28;20022;-71
2021/08/22 04:25:34;;;;;;;7.88;2.90;;;;;;;15.75;100.00;98853.41;5004059;28;20475;-71
2021/08/22 04:28:00;;;;;;;7.57;2.78;;;;;;;15.78;100.00;98872.84;5021303;28;20041;-70
2021/08/22 04:30:26;;;;;;;4.18;2.47;;;;;;;15.69;100.00;98863.38;5021561;28;20026;-71
2021/08/22 04:32:51;;;;;;;4.43;2.80;;;;;;;15.76;100.00;98871.44;5020090;28;20050;-70
2021/08/22 04:35:16;;;;;;;5.53;2.45;;;;;;;15.76;100.00;98874.16;5019381;28;20030;-70
2021/08/22 04:37:42;;;;;;;5.97;2.70;;;;;;;15.75;100.00;98872.50;5017308;28;20022;-70
2021/08/22 04:40:08;;;;;;;4.97;2.85;;;;;;;15.79;100.00;98879.13;5010313;28;20068;-70
2021/08/22 04:42:34;;;;;;;3.40;2.47;;;;;;;15.82;100.00;98872.38;5012017;28;20022;-70
2021/08/22 04:45:00;;;;;;;5.90;2.63;;;;;;;15.87;100.00;98862.41;5011286;28;20028;-70
2021/08/22 04:47:25;;;;;;;4.93;3.00;;;;;;;16.04;100.00;98886.28;5012280;28;20101;-70
2021/08/22 04:49:51;;;;;;;3.95;2.63;;;;;;;16.14;100.00;98886.53;5007950;28;20124;-71
2021/08/22 04:52:16;;;;;;;6.43;2.35;;;;;;;16.23;100.00;98876.91;5003682;28;20029;-71
2021/08/22 04:54:42;;;;;;;5.05;2.72;;;;;;;16.29;100.00;98859.56;4991470;28;20021;-72
2021/08/22 04:57:08;;;;;;;6.13;2.88;;;;;;;16.48;100.00;98876.66;5010291;28;20025;-72
2021/08/22 04:59:33;;;;;;;4.00;2.35;;;;;;;16.48;100.00;98871.19;5011522;28;20499;-71
2021/08/22 05:01:59;;;;;;;5.55;2.15;;;;;;;16.51;100.00;98878.06;4995803;28;20040;-72
2021/08/22 05:04:24;;;;;;;4.82;2.45;;;;;;;16.61;100.00;98860.00;5009965;28;20163;-72
2021/08/22 05:06:49;;;;;;;5.38;2.60;;;;;;;16.79;100.00;98883.63;5013772;23;20042;-71
2021/08/22 05:09:15;;;;;;;5.85;2.47;;;;;;;16.74;100.00;98871.69;4988800;28;20033;-69
2021/08/22 05:11:40;;;;;;;6.13;2.40;;;;;;;16.85;100.00;98884.56;4989736;28;20029;-70
2021/08/22 05:14:05;;;;;;;5.72;2.78;;;;;;;16.92;100.00;98884.41;5004447;28;22046;-72
2021/08/22 05:16:31;;;;;;;7.80;2.53;;;;;;;17.02;100.00;98892.81;4987218;28;20018;-73
2021/08/22 05:18:56;;;;;;;4.57;2.92;;;;;;;16.91;100.00;98886.31;4982846;28;20026;-73
2021/08/22 05:21:21;;;;;;;5.07;2.55;;;;;;;16.86;100.00;98881.56;4993723;28;20105;-73
2021/08/22 05:23:47;;;;;;;4.95;2.75;;;;;;;16.95;100.00;98886.63;4997266;28;20065;-74
2021/08/22 05:26:12;;;;;;;4.80;2.50;;;;;;;17.04;100.00;98886.03;4998086;28;20034;-74
2021/08/22 05:28:37;;;;;;;5.00;2.53;;;;;;;17.07;100.00;98885.53;4994787;28;20026;-73
2021/08/22 05:31:03;;;;;;;7.97;2.80;;;;;;;17.15;99.68;98889.78;4986469;28;20030;-74
2021/08/22 05:33:28;;;;;;;5.18;2.40;;;;;;;17.12;98.63;98876.59;4986617;28;20019;-74
2021/08/22 05:35:53;;;;;;;5.72;2.63;;;;;;;17.25;98.83;98898.19;4998438;28;20111;-74
2021/08/22 05:38:19;;;;;;;4.57;2.83;;;;;;;17.15;97.84;98886.22;4995699;28;20019;-73
2021/08/22 05:40:44;;;;;;;8.75;3.30;;;;;;;17.12;98.47;98895.75;4991476;28;20471;-75
2021/08/22 05:43:09;;;;;;;5.18;2.63;;;;;;;17.11;99.29;98887.78;4984100;28;20033;-74
2021/08/22 05:45:35;;;;;;;5.07;2.60;;;;;;;17.21;98.63;98904.38;4996867;28;20468;-75
2021/08/22 05:48:00;;;;;;;3.42;2.50;;;;;;;17.28;99.74;98899.59;4994960;28;20065;-75
2021/08/22 05:50:25;;;;;;;5.55;2.63;;;;;;;17.32;99.23;98906.25;4996946;28;20454;-74
2021/08/22 05:52:51;;;;;;;5.22;2.50;;;;;;;17.32;98.27;98895.31;4991905;28;20419;-71
2021/08/22 05:55:16;;;;;;;5.65;3.00;;;;;;;17.32;97.90;98884.38;4996722;28;20062;-71
2021/08/22 05:57:42;;;;;;;6.15;2.45;;;;;;;17.44;97.05;98892.50;4991387;28;20040;-72
2021/08/22 06:00:08;;;;;;;5.53;2.80;;;;;;;17.50;96.95;98889.63;4988604;28;20097;-71
2021/08/22 06:02:37;;;;;;;6.13;2.50;;;;;;;17.64;96.67;98895.59;4991313;28;20034;-71
2021/08/22 06:05:06;;;;;;;3.90;2.27;;;;;;;17.81;94.20;98892.91;4999063;28;20034;-71
2021/08/22 06:07:31;;;;;;;4.30;2.97;;;;;;;17.99;94.55;98886.34;4992669;28;20031;-72
2021/08/22 06:09:57;;;;;;;5.22;2.72;;;;;;;18.08;94.90;98884.03;4996073;28;20049;-71
2021/08/22 06:12:23;;;;;;;4.85;2.53;;;;;;;18.12;93.87;98893.41;4994720;28;20472;-72
2021/08/22 06:14:49;;;;;;;10.38;2.70;;;;;;;18.17;94.34;98898.97;4991301;28;20041;-71
2021/08/22 06:17:14;;;;;;;4.10;2.80;;;;;;;18.06;94.39;98889.75;4997004;28;20019;-71
2021/08/22 06:19:39;;;;;;;5.47;2.92;;;;;;;18.13;95.23;98898.63;4991157;28;20037;-71
2021/08/22 06:22:05;;;;;;;4.10;2.60;;;;;;;18.38;95.12;98906.38;4995521;28;20030;-72
2021/08/22 06:24:32;;;;;;;5.50;2.42;;;;;;;18.35;95.04;98897.84;4993940;28;20041;-72
2021/08/22 06:26:58;;;;;;;7.38;2.60;;;;;;;18.43;95.14;98904.81;4995070;28;20026;-72
2021/08/22 06:29:23;;;;;;;4.80;2.92;;;;;;;18.68;92.63;98901.59;4995217;28;20030;-72
2021/08/22 06:31:50;;;;;;;7.88;2.72;;;;;;;18.82;90.67;98900.16;5000238;28;20033;-71
2021/08/22 06:34:16;;;;;;;4.30;2.60;;;;;;;19.11;88.73;98894.50;4994166;28;20048;-71
2021/08/22 06:36:42;;;;;;;4.97;3.03;;;;;;;19.29;87.14;98888.66;4993965;28;20475;-71
2021/08/22 06:39:08;;;;;;;4.38;2.47;;;;;;;19.43;84.05;98884.41;4985313;28;20034;-68
2021/08/22 06:41:33;;;;;;;6.43;2.88;;;;;;;19.53;83.65;98894.66;4990003;28;20025;-68
2021/08/22 06:43:59;;;;;;;5.82;2.90;;;;;;;19.45;83.20;98895.13;4998218;28;20030;-68
2021/08/22 06:46:24;;;;;;;4.28;2.67;;;;;;;19.49;84.54;98894.34;4990422;28;20077;-68
2021/08/22 06:48:50;;;;;;;5.95;2.42;;;;;;;19.38;84.25;98881.59;4989404;28;20486;-68
2021/08/22 06:51:15;;;;;;;5.15;2.80;;;;;;;19.73;83.29;98882.22;4994842;28;20034;-67
2021/08/22 06:53:40;;;;;;;5.10;2.67;;;;;;;20.38;81.17;98885.72;4988777;28;20119;-67
2021/08/22 06:56:06;;;;;;;7.07;2.33;;;;;;;20.65;79.56;98886.47;4990077;28;20728;-68
2021/08/22 06:58:31;;;;;;;4.22;2.45;;;;;;;21.17;77.04;98874.59;4987647;28;20030;-73
2021/08/22 07:00:56;;;;;;;5.35;2.35;;;;;;;21.17;77.19;98877.34;4992688;28;20022;-69
2021/08/22 07:03:22;;;;;;;8.07;2.70;;;;;;;21.00;77.20;98891.28;4991979;28;20447;-69
2021/08/22 07:05:47;;;;;;;4.97;2.97;;;;;;;20.71;78.20;98882.66;4986005;28;20117;-69
2021/08/22 07:08:13;;;;;;;4.78;2.90;;;;;;;20.23;79.95;98891.97;4981867;28;20622;-74
2021/08/22 07:10:39;;;;;;;5.28;2.70;;;;;;;20.11;82.50;98892.16;4993175;28;20034;-74
2021/08/22 07:13:04;;;;;;;5.95;2.78;;;;;;;19.85;83.40;98891.94;4993799;28;20472;-72
2021/08/22 07:15:30;;;;;;;4.97;2.83;;;;;;;19.72;84.70;98891.56;4994128;28;20034;-72
2021/08/22 07:17:55;;;;;;;5.05;3.03;;;;;;;19.19;86.41;98894.03;4993818;28;20022;-70
2021/08/22 07:20:20;;;;;;;6.32;3.20;;;;;;;19.09;89.01;98899.41;4994918;28;20037;-71
2021/08/22 07:22:46;;;;;;;8.50;3.15;;;;;;;18.96;90.55;98900.59;4988093;28;20026;-69
2021/08/22 07:25:11;;;;;;;6.97;3.05;;;;;;;18.91;92.35;98898.63;4993552;28;20026;-72
2021/08/22 07:27:37;;;;;;;5.80;3.50;;;;;;;19.01;90.45;98904.22;4994586;28;20594;-73
2021/08/22 07:30:03;;;;;;;6.85;3.45;;;;;;;19.20;89.63;98896.53;4994197;28;20052;-73
2021/08/22 07:32:28;;;;;;;5.00;2.97;;;;;;;19.42;89.60;98899.22;4987172;28;20395;-73
2021/08/22 07:34:53;;;;;;;8.25;3.67;;;;;;;19.64;88.36;98901.06;4992235;28;20042;-73
2021/08/22 07:37:18;;;;;;;4.45;3.03;;;;;;;19.98;85.97;98895.34;4992596;28;20077;-73
2021/08/22 07:39:44;;;;;;;6.50;3.30;;;;;;;20.05;85.45;98904.19;4992726;28;20030;-73
2021/08/22 07:42:09;;;;;;;6.10;2.90;;;;;;;20.24;82.94;98899.94;4994285;28;20030;-73
2021/08/22 07:44:34;;;;;;;5.88;3.30;;;;;;;20.32;82.30;98907.69;4984220;28;20093;-73
2021/08/22 07:47:00;;;;;;;5.88;3.22;;;;;;;20.09;83.82;98902.56;4986451;28;20026;-72
2021/08/22 07:49:25;;;;;;;7.57;3.35;;;;;;;19.93;84.32;98896.13;4990986;28;20037;-74
2021/08/22 07:51:51;;;;;;;6.85;3.63;;;;;;;19.74;86.19;98911.34;4988321;28;20038;-74
2021/08/22 07:54:16;;;;;;;6.80;3.33;;;;;;;19.48;88.30;98903.66;4977427;28;20041;-73
2021/08/22 07:56:42;;;;;;;5.65;3.90;;;;;;;19.23;92.49;98911.59;4979159;28;20046;-72
2021/08/22 07:59:08;;;;;;;9.73;4.22;;;;;;;19.12;92.62;98909.84;4993617;28;20062;-70
2021/08/22 08:01:33;;;;;;;6.72;3.70;;;;;;;19.26;92.61;98911.13;4990228;28;20026;-72
2021/08/22 08:03:59;;;;;;;7.68;3.63;;;;;;;19.31;92.10;98902.09;4993094;28;20495;-72
2021/08/22 08:06:24;;;;;;;9.82;3.78;;;;;;;19.50;91.32;98922.63;4986548;28;20404;-72
2021/08/22 08:08:49;;;;;;;6.32;3.78;;;;;;;19.49;89.68;98894.34;4995871;28;20034;-73
2021/08/22 08:11:15;;;;;;;5.22;3.97;;;;;;;19.82;89.67;98925.41;4993549;28;20027;-72
2021/08/22 08:13:41;;;;;;;7.43;3.78;;;;;;;20.04;90.04;98919.00;4987100;28;20381;-72
2021/08/22 08:16:06;;;;;;;4.60;3.28;;;;;;;20.30;88.85;98915.38;4993432;28;20034;-69
2021/08/22 08:18:31;;;;;;;4.47;3.35;;;;;;;20.53;87.15;98927.88;4994199;28;20026;-70
2021/08/22 08:20:57;;;;;;;5.35;3.03;;;;;;;20.56;87.29;98912.81;4994230;28;20447;-75
2021/08/22 08:23:22;;;;;;;6.03;3.70;;;;;;;20.73;87.93;98926.38;4993286;28;20049;-75
2021/08/22 08:25:48;;;;;;;6.47;3.70;;;;;;;20.37;87.17;98937.13;4998867;28;20022;-71
2021/08/22 08:28:13;;;;;;;6.93;3.70;;;;;;;20.09;88.12;98932.78;4980871;28;20030;-72
2021/08/22 08:30:38;;;;;;;4.38;3.30;;;;;;;20.07;89.19;98915.75;4993077;28;20053;-73
2021/08/22 08:33:04;;;;;;;5.22;3.50;;;;;;;20.06;90.10;98933.31;4992395;28;20080;-72
2021/08/22 08:35:29;;;;;;;5.82;3.20;;;;;;;20.34;87.98;98937.66;4992239;28;20026;-72
2021/08/22 08:37:54;;;;;;;6.93;3.15;;;;;;;20.40;87.30;98930.28;4987149;28;20033;-72
2021/08/22 08:40:20;;;;;;;5.97;3.20;;;;;;;20.28;87.72;98934.03;4981474;28;20419;-72
2021/08/22 08:42:56;;;;;;;5.72;3.38;;;;;;;20.17;88.58;98948.78;4983995;28;20035;-72
2021/08/22 08:45:50;;;;;;;5.88;3.40;;;;;;;20.15;88.93;98942.75;4992987;28;20085;-72
2021/08/22 08:48:36;;;;;;;7.38;3.55;;;;;;;20.45;87.54;98949.53;4974128;28;20062;-72
2021/08/22 08:51:26;;;;;;;7.40;3.17;;;;;;;20.71;86.68;98943.13;4989970;28;20045;-72
2021/08/22 08:53:56;;;;;;;9.82;3.65;;;;;;;21.20;82.83;98942.81;4977371;28;20042;-72
2021/08/22 08:56:23;;;;;;;6.10;3.40;;;;;;;20.94;85.18;98947.41;4986088;28;20029;-71
2021/08/22 08:58:48;;;;;;;5.22;2.92;;;;;;;21.72;81.82;98941.06;4989869;28;20045;-71
2021/08/22 09:01:13;;;;;;;10.07;3.53;;;;;;;21.76;79.95;98938.59;4990852;28;20026;-73
2021/08/22 09:04:03;;;;;;;6.03;3.53;;;;;;;21.65;78.12;98929.50;4997184;28;20035;-73
2021/08/22 09:06:52;;;;;;;5.25;3.40;;;;;;;22.22;76.63;98938.66;4968938;28;20049;-73
2021/08/22 09:09:20;;;;;;;6.80;3.97;;;;;;;22.04;75.17;98928.97;4993474;28;20037;-73
2021/08/22 09:12:29;;;;;;;7.07;3.85;;;;;;;22.00;75.44;98931.44;4999078;28;20030;-73
2021/08/22 09:15:16;;;;;;;7.18;4.03;;;;;;;21.87;77.22;98937.50;4989069;28;20481;-72
2021/08/22 09:18:19;;;;;;;5.53;4.00;;;;;;;21.14;80.66;98935.66;4980912;28;20522;-71
2021/08/22 09:21:03;;;;;;;5.72;4.05;;;;;;;21.08;80.90;98938.66;4991237;28;20101;-72
2021/08/22 09:23:59;;;;;;;5.03;3.65;;;;;;;21.55;79.10;98943.22;4989928;28;20044;-70
2021/08/22 09:26:40;;;;;;;7.28;4.10;;;;;;;21.81;76.59;98941.34;4975504;28;20039;-69
2021/08/22 09:29:43;;;;;;;5.55;3.60;;;;;;;21.93;76.91;98939.16;4986352;28;20741;-70
2021/08/22 09:32:47;;;;;;;7.22;3.88;;;;;;;21.47;78.80;98950.09;4978609;28;20042;-68
2021/08/22 09:35:30;;;;;;;5.03;3.58;;;;;;;21.58;79.88;98951.75;4989877;28;20037;-69
2021/08/22 09:38:14;;;;;;;5.97;3.95;;;;;;;21.69;79.12;98941.59;4990770;28;20068;-69
2021/08/22 09:40:58;;;;;;;5.25;3.58;;;;;;;21.98;77.95;98950.19;4984682;28;20046;-69
2021/08/22 09:44:01;;;;;;;10.13;4.43;;;;;;;21.81;77.82;98938.59;4973969;28;20053;-69
2021/08/22 09:46:48;;;;;;;6.30;4.05;;;;;;;21.92;77.58;98936.69;4988515;28;20592;-69
2021/08/22 09:49:24;;;;;;;7.03;4.65;;;;;;;21.73;77.67;98937.22;4987874;28;20105;-69
2021/08/22 09:52:27;;;;;;;6.47;3.80;;;;;;;21.78;76.71;98934.47;4984508;28;20118;-69
2021/08/22 09:55:30;;;;;;;5.78;3.65;;;;;;;21.89;78.08;98935.28;4985400;28;20040;-69
2021/08/22 09:58:37;;;;;;;14.80;9.32;;;;;;;21.96;77.77;98937.78;4979047;28;20037;-69
2021/08/22 10:01:08;;;;;;;9.82;6.70;;;;;;;22.27;77.05;98930.38;4985209;28;20050;-70
2021/08/22 10:04:26;;;;;;;9.98;7.15;;;;;;;22.34;76.10;98933.66;4988966;28;20030;-69
2021/08/22 10:07:24;;;;;;;6.25;4.35;;;;;;;22.38;76.63;98937.53;4964757;28;20062;-69
2021/08/22 10:09:57;;;;;;;6.50;4.05;;;;;;;22.20;75.79;98932.59;4981939;28;20031;-69
2021/08/22 10:12:23;;;;;;;5.75;3.92;;;;;;;22.58;76.15;98938.59;4985024;28;20015;-70
2021/08/22 10:14:48;;;;;;;4.88;3.67;;;;;;;22.84;73.65;98937.41;4981671;28;20057;-69
2021/08/22 10:17:26;;;;;;;6.30;4.30;;;;;;;22.77;75.97;98931.38;4973763;28;20038;-69
2021/08/22 10:19:55;;;;;;;6.88;4.00;;;;;;;22.49;75.04;98932.81;4988701;28;20496;-70
2021/08/22 10:22:26;;;;;;;;;;;;;;;22.13;77.66;98923.72;4985699;28;20027;-69
2021/08/22 10:24:57;;;;;;;6.18;4.10;;;;;;;22.05;76.48;98923.19;4984521;28;19980;-69
2021/08/22 10:27:35;;;;;;;9.02;4.68;;;;;;;22.09;77.72;98928.97;4992800;28;20023;-69
2021/08/22 10:30:04;;;;;;;5.70;4.20;;;;;;;22.01;78.41;98921.28;4991475;28;20407;-69
2021/08/22 10:32:34;;;;;;;7.07;4.70;;;;;;;21.68;78.91;98915.16;4990850;28;20038;-70
2021/08/22 10:35:12;;;;;;;8.80;4.30;;;;;;;21.56;78.77;98937.47;4992172;28;20034;-69
2021/08/22 10:37:38;;;;;;;6.75;4.43;;;;;;;21.37;79.53;98933.50;4987705;28;20033;-70
2021/08/22 10:40:28;;;;;;;6.40;4.55;;;;;;;21.42;80.71;98936.31;4983933;28;20531;-69
2021/08/22 10:43:05;;;;;;;7.45;4.38;;;;;;;21.36;82.68;98931.88;4978683;28;20042;-69
2021/08/22 10:45:43;;;;;;;7.63;4.50;;;;;;;21.02;81.70;98929.56;4972983;28;20129;-69
2021/08/22 10:48:29;;;;;;;6.90;4.43;;;;;;;21.13;81.45;98927.66;4975184;28;20042;-69
2021/08/22 10:51:04;;;;;;;7.70;4.40;;;;;;;21.27;82.74;98927.97;4992150;28;20034;-69
2021/08/22 10:53:35;;;;;;;5.45;4.10;;;;;;;21.29;82.34;98915.59;4980714;28;20022;-70
2021/08/22 10:56:23;;;;;;;7.53;4.88;;;;;;;21.23;82.80;98909.25;4982860;28;20022;-70
2021/08/22 10:59:09;;;;;;;8.07;4.65;;;;;;;21.17;81.77;98918.59;4992694;28;20550;-70
2021/08/22 11:01:36;;;;;;;7.30;5.07;;;;;;;20.99;82.73;98922.66;4973129;28;20048;-69
2021/08/22 11:04:15;;;;;;;10.15;4.70;;;;;;;20.85;83.55;98920.66;4987833;28;20034;-70
2021/08/22 11:06:56;;;;;;;7.40;4.75;;;;;;;20.61;85.42;98914.75;4972836;28;20553;-69
2021/08/22 11:09:40;;;;;;;8.98;4.63;;;;;;;20.22;87.15;98923.28;4985098;28;20034;-69
2021/08/22 11:12:22;;;;;;;6.05;4.60;;;;;;;19.91;87.86;98925.75;4993324;28;20462;-70
2021/08/22 11:14:47;;;;;;;7.05;4.57;;;;;;;19.61;89.38;98940.84;4993140;28;20034;-69
2021/08/22 11:17:13;;;;;;;5.85;4.32;;;;;;;19.35;92.14;98953.44;4982723;28;20543;-69
2021/08/22 11:19:38;;;;;;;6.90;4.45;;;;;;;19.22;92.50;98949.19;4979022;28;20487;-69
2021/08/22 11:22:22;;;;;;;6.70;4.82;;;;;;;19.15;92.52;98953.22;4985181;28;20035;-69
2021/08/22 11:24:51;;;;;;;5.57;3.55;;;;;;;19.03;91.34;98962.41;5004660;28;20035;-69
2021/08/22 11:27:25;;;;;;;7.07;4.25;;;;;;;19.08;92.80;98955.34;4989510;28;20455;-69
2021/08/22 11:29:56;;;;;;;7.22;4.55;;;;;;;19.10;94.05;98944.91;4999123;28;20050;-69
2021/08/22 11:32:22;;;;;;;7.18;4.10;;;;;;;19.18;93.82;98948.06;5006174;28;20062;-69
2021/08/22 11:34:47;;;;;;;7.15;4.30;;;;;;;19.27;92.81;98951.16;4989105;28;20416;-69
2021/08/22 11:37:18;;;;;;;7.72;4.70;;;;;;;19.39;91.62;98951.88;4981185;28;20576;-69
2021/08/22 11:39:44;;;;;;;5.30;3.80;;;;;;;19.60;91.69;98963.06;4991074;28;20042;-69
2021/08/22 11:42:09;;;;;;;8.88;3.83;;;;;;;19.40;89.69;98964.50;4985663;28;20037;-70